createdAt,value
2022-12-20T00:01:40.780Z,57.10
2022-12-20T00:04:08.909Z,57.00
2022-12-20T00:06:38.089Z,57.00
2022-12-20T00:09:07.345Z,56.90
2022-12-20T00:11:35.121Z,57.00
2022-12-20T00:14:02.909Z,57.10
2022-12-20T00:16:30.937Z,57.10
2022-12-20T00:18:59.726Z,57.10
2022-12-20T00:21:27.930Z,57.10
2022-12-20T00:23:57.932Z,57.00
2022-12-20T00:26:27.959Z,57.00
2022-12-20T00:28:57.314Z,57.10
2022-12-20T00:31:25.743Z,57.00
2022-12-20T00:33:54.573Z,57.10
2022-12-20T00:36:22.416Z,57.10
2022-12-20T00:38:50.887Z,57.10
2022-12-20T00:41:21.549Z,57.10
2022-12-20T00:43:49.402Z,57.10
2022-12-20T00:46:17.769Z,57.10
2022-12-20T00:48:45.578Z,57.00
2022-12-20T00:51:14.248Z,57.00
2022-12-20T00:53:42.416Z,57.10
2022-12-20T00:56:10.816Z,57.00
2022-12-20T00:58:40.546Z,57.10
2022-12-20T01:01:15.672Z,57.10
2022-12-20T01:03:43.588Z,57.10
2022-12-20T01:06:11.979Z,57.10
2022-12-20T01:08:39.801Z,57.10
2022-12-20T01:11:09.132Z,57.10
2022-12-20T01:13:39.423Z,57.10
2022-12-20T01:16:07.709Z,57.10
2022-12-20T01:18:35.640Z,57.10
2022-12-20T01:21:03.916Z,57.10
2022-12-20T01:23:32.063Z,57.10
2022-12-20T01:26:00.401Z,57.10
2022-12-20T01:28:28.801Z,57.10
2022-12-20T01:30:57.898Z,57.20
2022-12-20T01:33:25.807Z,57.20
2022-12-20T01:35:57.680Z,57.20
2022-12-20T01:38:25.390Z,57.10
2022-12-20T01:40:53.141Z,57.10
2022-12-20T01:43:21.625Z,57.10
2022-12-20T01:45:49.383Z,57.10
2022-12-20T01:48:26.145Z,57.20
2022-12-20T01:50:53.823Z,57.20
2022-12-20T01:53:22.357Z,57.20
2022-12-20T01:55:50.026Z,57.20
2022-12-20T01:58:18.791Z,57.20
2022-12-20T02:00:46.542Z,57.20
2022-12-20T02:03:14.996Z,57.10
2022-12-20T02:05:45.507Z,57.20
2022-12-20T02:08:15.074Z,57.20
2022-12-20T02:10:50.135Z,57.20
2022-12-20T02:13:21.286Z,57.20
2022-12-20T02:15:51.040Z,57.20
2022-12-20T02:18:22.681Z,57.20
2022-12-20T02:24:47.016Z,57.20
2022-12-20T02:27:26.921Z,57.40
2022-12-20T02:30:10.449Z,57.40
2022-12-20T02:32:40.279Z,57.40
2022-12-20T02:35:09.021Z,57.40
2022-12-20T02:37:36.681Z,57.40
2022-12-20T02:40:04.944Z,57.40
2022-12-20T02:42:32.665Z,57.30
2022-12-20T02:45:15.335Z,57.30
2022-12-20T02:47:47.110Z,57.40
2022-12-20T02:50:16.211Z,57.40
2022-12-20T02:52:44.667Z,57.40
2022-12-20T02:55:12.466Z,57.40
2022-12-20T02:57:44.113Z,57.40
2022-12-20T03:00:15.062Z,57.50
2022-12-20T03:03:00.574Z,57.40
2022-12-20T03:05:31.758Z,57.40
2022-12-20T03:07:59.608Z,57.40
2022-12-20T03:10:28.902Z,57.50
2022-12-20T03:13:21.330Z,57.50
2022-12-20T03:15:50.967Z,57.40
2022-12-20T03:18:18.731Z,57.50
2022-12-20T03:20:46.453Z,57.60
2022-12-20T03:23:14.396Z,57.50
2022-12-20T03:25:42.304Z,57.50
2022-12-20T03:28:10.596Z,57.50
2022-12-20T03:30:38.503Z,57.60
2022-12-20T03:33:08.452Z,57.60
2022-12-20T03:35:36.349Z,57.60
2022-12-20T03:38:04.097Z,57.60
2022-12-20T03:40:31.919Z,57.60
2022-12-20T03:43:00.367Z,57.60
2022-12-20T03:45:28.269Z,57.60
2022-12-20T03:47:56.697Z,57.60
2022-12-20T03:50:25.881Z,57.70
2022-12-20T03:52:54.038Z,57.70
2022-12-20T03:55:21.728Z,57.70
2022-12-20T03:57:49.932Z,57.70
2022-12-20T04:00:19.005Z,57.70
2022-12-20T04:02:47.496Z,57.70
2022-12-20T04:05:16.736Z,57.70
2022-12-20T04:07:46.101Z,57.70
2022-12-20T04:10:14.514Z,57.70
2022-12-20T04:12:42.205Z,57.70
2022-12-20T04:15:10.949Z,57.80
2022-12-20T04:17:38.636Z,57.80
2022-12-20T04:20:19.476Z,57.80
2022-12-20T04:22:48.780Z,57.90
2022-12-20T04:25:17.758Z,57.90
2022-12-20T04:27:45.539Z,57.90
2022-12-20T04:30:14.325Z,57.90
2022-12-20T04:32:42.009Z,57.90
2022-12-20T04:35:10.520Z,57.90
2022-12-20T04:37:38.496Z,57.90
2022-12-20T04:40:09.187Z,57.90
2022-12-20T04:42:37.436Z,57.90
2022-12-20T04:45:05.971Z,58.00
2022-12-20T04:47:34.372Z,57.90
2022-12-20T04:50:02.394Z,57.90
2022-12-20T04:52:48.477Z,57.90
2022-12-20T04:55:17.958Z,57.90
2022-12-20T04:57:46.359Z,58.00
2022-12-20T05:00:15.788Z,58.00
2022-12-20T05:02:44.251Z,58.00
2022-12-20T05:05:12.316Z,58.00
2022-12-20T05:07:40.713Z,58.00
2022-12-20T05:10:09.701Z,58.10
2022-12-20T05:12:39.574Z,58.10
2022-12-20T05:15:08.506Z,58.00
2022-12-20T05:17:36.576Z,58.10
2022-12-20T05:20:05.975Z,58.10
2022-12-20T05:22:51.335Z,58.10
2022-12-20T05:25:37.566Z,58.10
2022-12-20T05:28:06.774Z,58.20
2022-12-20T05:30:35.063Z,58.30
2022-12-20T05:33:02.776Z,58.40
2022-12-20T05:35:30.971Z,58.40
2022-12-20T05:37:58.837Z,58.40
2022-12-20T05:40:26.906Z,58.40
2022-12-20T05:42:55.372Z,58.40
2022-12-20T05:45:24.762Z,58.40
2022-12-20T05:47:52.440Z,58.40
2022-12-20T05:50:20.163Z,58.40
2022-12-20T05:52:47.902Z,58.30
2022-12-20T05:55:15.724Z,58.40
2022-12-20T05:57:44.001Z,58.40
2022-12-20T06:00:13.112Z,58.50
2022-12-20T06:02:43.219Z,58.50
2022-12-20T06:05:11.260Z,58.50
2022-12-20T06:07:39.555Z,58.50
2022-12-20T06:10:08.702Z,58.50
2022-12-20T06:12:36.767Z,58.50
2022-12-20T06:15:04.618Z,58.50
2022-12-20T06:17:32.878Z,58.50
2022-12-20T06:20:01.911Z,58.60
2022-12-20T06:22:30.255Z,58.60
2022-12-20T06:24:58.102Z,58.60
2022-12-20T06:27:26.014Z,58.60
2022-12-20T06:29:54.625Z,58.60
2022-12-20T06:32:22.467Z,58.60
2022-12-20T06:34:50.756Z,58.70
2022-12-20T06:37:19.768Z,58.70
2022-12-20T06:39:47.845Z,58.80
2022-12-20T06:42:15.520Z,58.90
2022-12-20T06:44:43.569Z,58.90
2022-12-20T06:47:11.270Z,58.90
2022-12-20T06:49:38.980Z,58.90
2022-12-20T06:52:06.676Z,58.90
2022-12-20T06:54:35.723Z,58.90
2022-12-20T06:57:03.444Z,58.90
2022-12-20T06:59:31.158Z,58.90
2022-12-20T07:01:59.097Z,58.90
2022-12-20T07:04:27.065Z,59.00
2022-12-20T07:06:55.166Z,58.90
2022-12-20T07:09:22.890Z,59.00
2022-12-20T07:11:52.029Z,59.10
2022-12-20T07:14:19.747Z,59.10
2022-12-20T07:16:47.946Z,59.10
2022-12-20T07:19:15.866Z,59.10
2022-12-20T07:21:43.632Z,59.00
2022-12-20T07:24:11.374Z,59.10
2022-12-20T07:26:39.132Z,59.20
2022-12-20T07:29:11.999Z,59.20
2022-12-20T07:31:43.583Z,59.20
2022-12-20T07:34:11.664Z,59.20
2022-12-20T07:36:39.674Z,59.20
2022-12-20T07:39:07.785Z,59.20
2022-12-20T07:41:35.944Z,59.20
2022-12-20T07:44:04.463Z,59.30
2022-12-20T07:46:34.857Z,59.20
2022-12-20T07:49:03.527Z,59.30
2022-12-20T07:51:34.953Z,59.30
2022-12-20T07:54:04.449Z,59.30
2022-12-20T07:56:37.472Z,59.40
2022-12-20T07:59:09.444Z,59.40
2022-12-20T08:01:39.258Z,59.40
2022-12-20T08:04:10.186Z,59.40
2022-12-20T08:06:38.640Z,59.40
2022-12-20T08:09:06.977Z,59.30
2022-12-20T08:11:36.319Z,59.40
2022-12-20T08:14:04.280Z,59.40
2022-12-20T08:16:32.824Z,59.30
2022-12-20T08:19:02.412Z,59.40
2022-12-20T08:21:31.268Z,59.30
2022-12-20T08:23:59.171Z,59.40
2022-12-20T08:26:27.669Z,59.40
2022-12-20T08:28:55.829Z,59.40
2022-12-20T08:31:23.951Z,59.40
2022-12-20T08:33:55.633Z,59.40
2022-12-20T08:36:25.603Z,59.40
2022-12-20T08:38:53.730Z,59.40
2022-12-20T08:41:21.870Z,59.50
2022-12-20T08:43:50.238Z,59.50
2022-12-20T08:46:18.263Z,59.50
2022-12-20T08:48:46.734Z,59.50
2022-12-20T08:51:14.751Z,59.50
2022-12-20T08:53:44.320Z,59.50
2022-12-20T08:56:13.794Z,59.40
2022-12-20T08:58:42.564Z,59.60
2022-12-20T09:01:12.084Z,59.50
2022-12-20T09:03:40.455Z,59.50
2022-12-20T09:06:09.308Z,59.50
2022-12-20T09:08:38.077Z,59.40
2022-12-20T09:11:08.651Z,59.50
2022-12-20T09:13:43.328Z,59.50
2022-12-20T09:16:15.949Z,59.50
2022-12-20T09:18:44.222Z,59.40
2022-12-20T09:21:12.156Z,59.50
2022-12-20T09:23:40.063Z,59.50
2022-12-20T09:26:13.552Z,59.50
2022-12-20T09:28:42.153Z,59.60
2022-12-20T09:31:12.692Z,59.60
2022-12-20T09:33:41.416Z,59.60
2022-12-20T09:36:11.752Z,59.70
2022-12-20T09:38:39.547Z,59.60
2022-12-20T09:41:10.471Z,59.60
2022-12-20T09:43:38.345Z,59.50
2022-12-20T09:46:06.418Z,59.50
2022-12-20T09:48:36.525Z,59.50
2022-12-20T09:51:08.845Z,59.50
2022-12-20T09:53:40.839Z,59.50
2022-12-20T09:56:13.703Z,59.40
2022-12-20T09:59:00.828Z,59.40
2022-12-20T10:01:36.275Z,59.40
2022-12-20T10:04:08.169Z,59.50
2022-12-20T10:06:44.640Z,59.50
2022-12-20T10:09:19.892Z,59.60
2022-12-20T10:11:59.869Z,59.70
2022-12-20T10:14:42.818Z,59.50
2022-12-20T10:17:13.642Z,59.70
2022-12-20T10:19:56.091Z,59.60
2022-12-20T10:22:26.970Z,59.60
2022-12-20T10:24:57.661Z,59.60
2022-12-20T10:27:27.568Z,59.30
2022-12-20T10:29:55.650Z,59.40
2022-12-20T10:32:24.556Z,59.20
2022-12-20T10:34:56.400Z,59.10
2022-12-20T10:37:24.580Z,59.00
2022-12-20T10:39:53.805Z,59.20
2022-12-20T10:42:28.570Z,59.10
2022-12-20T10:44:56.658Z,59.20
2022-12-20T10:47:30.878Z,59.10
2022-12-20T10:50:15.111Z,59.20
2022-12-20T10:52:43.079Z,59.30
2022-12-20T10:55:34.872Z,59.30
2022-12-20T10:58:06.074Z,59.30
2022-12-20T11:00:34.536Z,59.40
2022-12-20T11:03:13.886Z,59.50
2022-12-20T11:05:42.479Z,59.50
2022-12-20T11:11:15.123Z,59.80
2022-12-20T11:13:44.695Z,59.80
2022-12-20T11:16:32.328Z,59.80
2022-12-20T11:19:07.248Z,59.90
2022-12-20T11:21:39.594Z,60.00
2022-12-20T11:24:12.091Z,60.10
2022-12-20T11:26:48.578Z,60.00
2022-12-20T11:29:26.230Z,60.10
2022-12-20T11:31:58.639Z,60.00
2022-12-20T11:34:33.178Z,60.10
2022-12-20T11:37:11.048Z,60.20
2022-12-20T11:39:41.673Z,60.10
2022-12-20T11:42:12.989Z,60.10
2022-12-20T11:44:58.883Z,60.20
2022-12-20T11:48:12.174Z,60.20
2022-12-20T11:50:47.522Z,60.10
2022-12-20T11:53:20.452Z,60.30
2022-12-20T11:55:49.512Z,60.30
2022-12-20T11:58:20.369Z,60.30
2022-12-20T12:00:53.743Z,60.30
2022-12-20T12:03:25.608Z,60.30
2022-12-20T12:05:54.585Z,60.40
2022-12-20T12:08:24.406Z,60.30
2022-12-20T12:10:55.974Z,60.30
2022-12-20T12:13:25.505Z,60.40
2022-12-20T12:15:59.040Z,60.30
2022-12-20T12:18:28.589Z,60.40
2022-12-20T12:21:06.643Z,60.50
2022-12-20T12:23:40.504Z,60.40
2022-12-20T12:26:12.402Z,60.50
2022-12-20T12:28:40.163Z,60.50
2022-12-20T12:31:11.233Z,60.60
2022-12-20T12:33:41.734Z,60.60
2022-12-20T12:36:31.165Z,60.60
2022-12-20T12:39:29.103Z,60.50
2022-12-20T12:42:08.846Z,60.70
2022-12-20T12:44:42.977Z,60.70
2022-12-20T12:47:16.195Z,60.90
2022-12-20T12:49:44.329Z,60.80
2022-12-20T12:52:42.829Z,60.80
2022-12-20T12:55:39.938Z,60.80
2022-12-20T12:58:34.820Z,60.90
2022-12-20T13:01:05.511Z,61.00
2022-12-20T13:03:43.416Z,61.10
2022-12-20T13:06:48.792Z,61.00
2022-12-20T13:09:22.655Z,60.90
2022-12-20T13:11:59.242Z,61.00
2022-12-20T13:14:48.225Z,61.10
2022-12-20T13:17:50.172Z,61.00
2022-12-20T13:20:24.103Z,60.90
2022-12-20T13:23:17.315Z,61.20
2022-12-20T13:25:46.005Z,61.10
2022-12-20T13:28:52.459Z,61.20
2022-12-20T13:31:33.906Z,61.10
2022-12-20T13:34:02.606Z,61.10
2022-12-20T13:36:37.322Z,61.20
2022-12-20T13:39:22.018Z,61.20
2022-12-20T13:41:51.872Z,61.10
2022-12-20T13:44:26.527Z,61.10
2022-12-20T13:46:57.053Z,61.10
2022-12-20T13:49:26.775Z,61.00
2022-12-20T13:52:36.316Z,61.00
2022-12-20T13:55:06.973Z,61.00
2022-12-20T13:57:41.745Z,61.00
2022-12-20T14:00:17.110Z,61.00
2022-12-20T14:02:44.930Z,60.90
2022-12-20T14:05:18.731Z,61.10
2022-12-20T14:07:56.703Z,61.20
2022-12-20T14:10:25.654Z,61.20
2022-12-20T14:12:53.800Z,61.20
2022-12-20T14:15:26.968Z,61.20
2022-12-20T14:17:54.864Z,61.30
2022-12-20T14:20:25.050Z,61.30
2022-12-20T14:23:04.156Z,61.20
2022-12-20T14:25:38.424Z,61.10
2022-12-20T14:28:06.382Z,61.20
2022-12-20T14:30:36.517Z,61.20
2022-12-20T14:33:05.408Z,61.30
2022-12-20T14:35:33.512Z,61.30
2022-12-20T14:38:04.375Z,61.30
2022-12-20T14:40:32.414Z,61.30
2022-12-20T14:43:00.550Z,61.30
2022-12-20T14:45:29.249Z,61.30
2022-12-20T14:48:00.291Z,61.30
2022-12-20T14:50:31.050Z,61.30
2022-12-20T14:52:58.908Z,61.30
2022-12-20T14:55:32.172Z,61.30
2022-12-20T14:58:00.700Z,61.20
2022-12-20T15:00:29.725Z,61.30
2022-12-20T15:03:03.297Z,61.30
2022-12-20T15:05:47.061Z,61.20
2022-12-20T15:08:16.365Z,61.30
2022-12-20T15:10:49.589Z,61.30
2022-12-20T15:13:18.161Z,61.30
2022-12-20T15:15:45.884Z,61.40
2022-12-20T15:18:14.414Z,61.30
2022-12-20T15:20:42.854Z,61.30
2022-12-20T15:23:14.727Z,61.30
2022-12-20T15:25:44.387Z,61.30
2022-12-20T15:28:16.384Z,61.30
2022-12-20T15:30:44.470Z,61.40
2022-12-20T15:33:18.399Z,61.30
2022-12-20T15:35:46.647Z,61.30
2022-12-20T15:38:16.532Z,61.30
2022-12-20T15:40:45.796Z,61.40
2022-12-20T15:43:16.832Z,61.30
2022-12-20T15:45:45.705Z,61.40
2022-12-20T15:48:17.840Z,61.30
2022-12-20T15:50:52.930Z,61.30
2022-12-20T15:53:23.490Z,61.30
2022-12-20T15:55:52.624Z,61.40
2022-12-20T15:58:21.933Z,61.40
2022-12-20T16:00:49.658Z,61.40
2022-12-20T16:03:19.915Z,61.30
2022-12-20T16:05:48.414Z,61.40
2022-12-20T16:08:16.508Z,61.30
2022-12-20T16:10:44.688Z,61.30
2022-12-20T16:13:20.932Z,61.30
2022-12-20T16:15:50.776Z,61.40
2022-12-20T16:18:18.600Z,61.40
2022-12-20T16:20:46.452Z,61.40
2022-12-20T16:23:17.613Z,61.40
2022-12-20T16:25:45.865Z,61.40
2022-12-20T16:28:13.830Z,61.40
2022-12-20T16:30:43.445Z,61.40
2022-12-20T16:33:20.225Z,61.40
2022-12-20T16:35:48.633Z,61.40
2022-12-20T16:38:16.790Z,61.40
2022-12-20T16:40:45.096Z,61.30
2022-12-20T16:43:15.708Z,61.30
2022-12-20T16:45:44.155Z,61.30
2022-12-20T16:48:12.420Z,61.40
2022-12-20T16:50:43.705Z,61.40
2022-12-20T16:53:15.539Z,61.40
2022-12-20T16:55:43.564Z,61.50
2022-12-20T16:58:14.865Z,61.40
2022-12-20T17:00:42.900Z,61.40
2022-12-20T17:03:10.988Z,61.60
2022-12-20T17:05:40.099Z,61.70
2022-12-20T17:10:59.374Z,61.70
2022-12-20T17:13:27.315Z,61.70
2022-12-20T17:15:55.709Z,61.70
2022-12-20T17:18:24.019Z,61.80
2022-12-20T17:20:52.096Z,61.90
2022-12-20T17:23:45.179Z,61.90
2022-12-20T17:26:16.021Z,61.90
2022-12-20T17:28:46.635Z,62.00
2022-12-20T17:31:22.262Z,61.80
2022-12-20T17:33:50.248Z,62.00
2022-12-20T17:36:18.303Z,62.00
2022-12-20T17:38:49.977Z,62.00
2022-12-20T17:41:28.393Z,62.10
2022-12-20T17:43:56.746Z,62.10
2022-12-20T17:46:24.945Z,62.10
2022-12-20T17:48:53.787Z,62.10
2022-12-20T17:51:22.653Z,62.10
2022-12-20T17:53:53.064Z,62.00
2022-12-20T17:56:22.354Z,62.10
2022-12-20T17:58:50.661Z,62.10
2022-12-20T18:01:23.368Z,62.10
2022-12-20T18:04:07.747Z,62.10
2022-12-20T18:06:37.496Z,62.10
2022-12-20T18:09:08.445Z,62.20
2022-12-20T18:11:36.302Z,62.20
2022-12-20T18:14:04.604Z,62.30
2022-12-20T18:16:35.222Z,62.30
2022-12-20T18:19:03.650Z,62.30
2022-12-20T18:21:31.739Z,62.20
2022-12-20T18:23:59.820Z,62.20
2022-12-20T18:26:30.361Z,62.30
2022-12-20T18:29:00.587Z,62.20
2022-12-20T18:31:29.530Z,62.20
2022-12-20T18:33:58.719Z,62.20
2022-12-20T18:36:28.218Z,62.20
2022-12-20T18:38:56.509Z,62.20
2022-12-20T18:41:25.376Z,62.30
2022-12-20T18:43:55.898Z,62.20
2022-12-20T18:46:26.643Z,62.20
2022-12-20T18:48:55.880Z,62.30
2022-12-20T18:51:25.158Z,62.20
2022-12-20T18:53:55.257Z,62.30
2022-12-20T18:56:26.754Z,62.20
2022-12-20T18:58:56.438Z,62.20
2022-12-20T19:01:25.582Z,62.20
2022-12-20T19:03:58.895Z,62.20
2022-12-20T19:06:53.942Z,62.20
2022-12-20T19:09:22.028Z,62.10
2022-12-20T19:11:56.206Z,62.30
2022-12-20T19:14:26.952Z,62.30
2022-12-20T19:16:54.907Z,62.30
2022-12-20T19:19:23.338Z,62.20
2022-12-20T19:21:53.332Z,62.20
2022-12-20T19:24:24.371Z,62.30
2022-12-20T19:26:53.558Z,62.10
2022-12-20T19:29:21.490Z,62.10
2022-12-20T19:31:51.161Z,62.10
2022-12-20T19:34:19.803Z,62.10
2022-12-20T19:37:02.343Z,62.00
2022-12-20T19:39:30.600Z,62.00
2022-12-20T19:42:23.692Z,62.20
2022-12-20T19:44:52.588Z,62.00
2022-12-20T19:47:26.387Z,62.10
2022-12-20T19:49:54.615Z,62.10
2022-12-20T19:52:28.196Z,62.20
2022-12-20T19:54:56.733Z,62.10
2022-12-20T19:57:26.753Z,62.20
2022-12-20T19:59:56.208Z,62.00
2022-12-20T20:02:26.096Z,62.10
2022-12-20T20:04:56.377Z,62.10
2022-12-20T20:07:24.490Z,62.10
2022-12-20T20:09:52.695Z,62.10
2022-12-20T20:12:23.768Z,62.10
2022-12-20T20:14:52.780Z,62.10
2022-12-20T20:17:21.756Z,62.10
2022-12-20T20:19:51.860Z,62.20
2022-12-20T20:22:23.006Z,62.20
2022-12-20T20:24:52.151Z,62.20
2022-12-20T20:27:23.559Z,62.20
2022-12-20T20:29:52.288Z,62.20
2022-12-20T20:32:20.429Z,62.20
2022-12-20T20:34:48.909Z,62.10
2022-12-20T20:37:18.558Z,62.20
2022-12-20T20:39:46.733Z,62.10
2022-12-20T20:42:18.487Z,62.10
2022-12-20T20:44:51.593Z,62.10
2022-12-20T20:47:20.711Z,62.10
2022-12-20T20:49:49.400Z,62.10
2022-12-20T20:52:19.719Z,62.20
2022-12-20T20:54:48.080Z,62.10
2022-12-20T20:57:16.382Z,62.10
2022-12-20T20:59:44.847Z,62.10
2022-12-20T21:03:02.797Z,62.10
2022-12-20T21:08:21.848Z,62.20
2022-12-20T21:10:49.850Z,62.20
2022-12-20T21:16:35.425Z,62.20
2022-12-20T21:19:03.292Z,62.20
2022-12-20T21:21:32.034Z,62.20
2022-12-20T21:24:01.135Z,62.10
2022-12-20T21:26:28.921Z,62.10
2022-12-20T21:29:20.782Z,62.10
2022-12-20T21:31:49.067Z,62.10
2022-12-20T21:34:16.885Z,62.20
2022-12-20T21:36:44.614Z,62.20
2022-12-20T21:39:17.178Z,62.10
2022-12-20T21:41:45.192Z,62.10
2022-12-20T21:44:13.332Z,62.10
2022-12-20T21:46:41.153Z,62.20
2022-12-20T21:49:09.048Z,62.10
2022-12-20T21:51:36.859Z,62.00
2022-12-20T21:54:05.011Z,62.10
2022-12-20T21:56:35.635Z,62.00
2022-12-20T21:59:04.073Z,61.90
2022-12-20T22:01:32.943Z,62.00
2022-12-20T22:04:05.109Z,61.90
2022-12-20T22:06:33.223Z,61.90
2022-12-20T22:09:01.161Z,61.90
2022-12-20T22:11:28.983Z,61.90
2022-12-20T22:13:59.575Z,61.90
2022-12-20T22:16:35.316Z,61.80
2022-12-20T22:19:03.712Z,61.80
2022-12-20T22:21:33.272Z,61.90
2022-12-20T22:24:02.469Z,61.90
2022-12-20T22:26:31.984Z,61.90
2022-12-20T22:29:02.354Z,61.80
2022-12-20T22:31:30.499Z,61.80
2022-12-20T22:33:58.765Z,62.20
2022-12-20T22:36:26.981Z,61.80
2022-12-20T22:38:55.122Z,61.70
2022-12-20T22:41:23.940Z,61.80
2022-12-20T22:43:52.920Z,61.80
2022-12-20T22:46:24.888Z,62.50
2022-12-20T22:48:52.831Z,61.70
2022-12-20T22:51:21.809Z,61.80
2022-12-20T22:53:50.186Z,62.50
2022-12-20T22:56:37.333Z,61.70
2022-12-20T22:59:57.765Z,61.70
2022-12-20T23:02:27.384Z,61.70
2022-12-20T23:04:55.787Z,61.60
2022-12-20T23:07:23.832Z,61.70
2022-12-20T23:09:51.872Z,61.70
2022-12-20T23:12:52.627Z,61.70
2022-12-20T23:15:40.834Z,61.70
2022-12-20T23:18:10.164Z,61.80
2022-12-20T23:20:55.726Z,61.70
2022-12-20T23:23:24.267Z,61.70
2022-12-20T23:25:52.442Z,61.70
2022-12-20T23:28:20.299Z,61.70
2022-12-20T23:30:48.118Z,61.60
2022-12-20T23:33:17.762Z,61.60
2022-12-20T23:35:46.367Z,61.60
2022-12-20T23:38:14.271Z,61.60
2022-12-20T23:40:42.185Z,61.50
2022-12-20T23:43:11.284Z,61.50
2022-12-20T23:45:39.147Z,61.50
2022-12-20T23:48:07.733Z,62.20
2022-12-20T23:50:38.434Z,61.50
2022-12-20T23:53:06.402Z,61.40
2022-12-20T23:55:34.380Z,61.40
2022-12-20T23:58:02.220Z,61.50
